createdAt,value
2023-04-25T00:00:41.455Z,19.75
2023-04-25T00:01:42.033Z,19.75
2023-04-25T00:02:42.972Z,19.74
2023-04-25T00:03:43.762Z,19.73
2023-04-25T00:04:44.732Z,19.73
2023-04-25T00:05:45.259Z,19.73
2023-04-25T00:06:45.773Z,19.72
2023-04-25T00:07:46.566Z,19.72
2023-04-25T00:08:47.100Z,19.73
2023-04-25T00:09:48.143Z,19.72
2023-04-25T00:10:48.926Z,19.72
2023-04-25T00:11:49.470Z,19.73
2023-04-25T00:12:50.263Z,19.73
2023-04-25T00:13:50.968Z,19.72
2023-04-25T00:14:51.667Z,19.72
2023-04-25T00:15:52.505Z,19.72
2023-04-25T00:16:53.099Z,19.72
2023-04-25T00:17:53.942Z,19.72
2023-04-25T00:18:54.580Z,19.72
2023-04-25T00:19:55.637Z,19.72
2023-04-25T00:20:56.413Z,19.72
2023-04-25T00:21:57.003Z,19.72
2023-04-25T00:22:57.783Z,19.72
2023-04-25T00:23:58.322Z,19.71
2023-04-25T00:24:59.390Z,19.70
2023-04-25T00:26:00.235Z,19.71
2023-04-25T00:27:00.733Z,19.70
2023-04-25T00:28:01.529Z,19.70
2023-04-25T00:29:02.086Z,19.70
2023-04-25T00:30:03.125Z,19.70
2023-04-25T00:31:03.925Z,19.70
2023-04-25T00:32:04.524Z,19.71
2023-04-25T00:33:05.420Z,19.70
2023-04-25T00:34:05.972Z,19.71
2023-04-25T00:35:07.019Z,19.71
2023-04-25T00:36:07.865Z,19.71
2023-04-25T00:37:08.410Z,19.70
2023-04-25T00:38:09.202Z,19.70
2023-04-25T00:39:09.730Z,19.69
2023-04-25T00:40:10.783Z,19.70
2023-04-25T00:41:11.593Z,19.70
2023-04-25T00:42:12.126Z,19.68
2023-04-25T00:43:12.915Z,19.70
2023-04-25T00:44:13.454Z,19.70
2023-04-25T00:45:14.499Z,19.69
2023-04-25T00:46:15.341Z,19.70
2023-04-25T00:47:15.933Z,19.70
2023-04-25T00:48:16.687Z,19.70
2023-04-25T00:49:17.238Z,19.69
2023-04-25T00:50:18.277Z,19.68
2023-04-25T00:51:19.076Z,19.69
2023-04-25T00:52:19.615Z,19.68
2023-04-25T00:53:20.385Z,19.68
2023-04-25T00:54:20.924Z,19.69
2023-04-25T00:55:21.979Z,19.68
2023-04-25T00:56:22.768Z,19.68
2023-04-25T00:57:23.312Z,19.68
2023-04-25T00:58:24.204Z,19.67
2023-04-25T00:59:24.711Z,19.67
2023-04-25T01:00:25.770Z,19.68
2023-04-25T01:01:26.648Z,19.69
2023-04-25T01:02:27.541Z,19.67
2023-04-25T01:03:28.319Z,19.67
2023-04-25T01:04:29.195Z,19.67
2023-04-25T01:05:29.720Z,19.66
2023-04-25T01:06:30.762Z,19.66
2023-04-25T01:07:31.555Z,19.66
2023-04-25T01:08:32.083Z,19.66
2023-04-25T01:09:32.874Z,19.65
2023-04-25T01:10:33.435Z,19.65
2023-04-25T01:11:34.481Z,19.66
2023-04-25T01:12:35.264Z,19.66
2023-04-25T01:13:35.798Z,19.67
2023-04-25T01:14:36.597Z,19.66
2023-04-25T01:15:37.195Z,19.66
2023-04-25T01:16:38.264Z,19.65
2023-04-25T01:17:39.197Z,19.65
2023-04-25T01:18:39.705Z,19.64
2023-04-25T01:19:40.742Z,19.64
2023-04-25T01:20:41.511Z,19.64
2023-04-25T01:21:42.056Z,19.64
2023-04-25T01:22:42.832Z,19.64
2023-04-25T01:23:43.399Z,19.65
2023-04-25T01:24:44.388Z,19.64
2023-04-25T01:25:45.173Z,19.64
2023-04-25T01:26:45.730Z,19.64
2023-04-25T01:27:46.522Z,19.64
2023-04-25T01:28:47.103Z,19.65
2023-04-25T01:29:48.153Z,19.65
2023-04-25T01:30:48.947Z,19.65
2023-04-25T01:31:49.508Z,19.66
2023-04-25T01:32:50.339Z,19.65
2023-04-25T01:33:51.208Z,19.64
2023-04-25T01:34:51.869Z,19.64
2023-04-25T01:35:52.665Z,19.65
2023-04-25T01:36:53.216Z,19.64
2023-04-25T01:37:54.003Z,19.63
2023-04-25T01:38:54.533Z,19.62
2023-04-25T01:39:55.622Z,19.62
2023-04-25T01:40:56.403Z,19.62
2023-04-25T01:41:57.631Z,19.62
2023-04-25T01:42:57.476Z,19.63
2023-04-25T01:43:58.011Z,19.62
2023-04-25T01:44:59.046Z,19.62
2023-04-25T01:45:59.865Z,19.62
2023-04-25T01:47:00.387Z,19.62
2023-04-25T01:48:01.256Z,19.62
2023-04-25T01:49:01.885Z,19.62
2023-04-25T01:50:02.914Z,19.63
2023-04-25T01:51:03.747Z,19.62
2023-04-25T01:52:04.290Z,19.62
2023-04-25T01:53:05.079Z,19.63
2023-04-25T01:54:05.623Z,19.62
2023-04-25T01:55:06.713Z,19.63
2023-04-25T01:56:07.462Z,19.62
2023-04-25T01:57:08.005Z,19.62
2023-04-25T01:58:08.789Z,19.62
2023-04-25T01:59:09.331Z,19.62
2023-04-25T02:00:10.367Z,19.62
2023-04-25T02:01:11.243Z,19.62
2023-04-25T02:02:11.836Z,19.62
2023-04-25T02:03:12.719Z,19.62
2023-04-25T02:04:13.459Z,19.61
2023-04-25T02:05:14.501Z,19.61
2023-04-25T02:06:15.286Z,19.61
2023-04-25T02:07:15.805Z,19.60
2023-04-25T02:08:16.862Z,19.60
2023-04-25T02:09:17.637Z,19.60
2023-04-25T02:10:18.183Z,19.60
2023-04-25T02:11:18.959Z,19.61
2023-04-25T02:12:19.509Z,19.61
2023-04-25T02:13:20.633Z,19.61
2023-04-25T02:14:21.418Z,19.60
2023-04-25T02:15:21.959Z,19.60
2023-04-25T02:16:22.806Z,19.60
2023-04-25T02:17:23.443Z,19.58
2023-04-25T02:18:24.526Z,19.59
2023-04-25T02:19:25.281Z,19.59
2023-04-25T02:20:25.829Z,19.59
2023-04-25T02:21:26.611Z,19.58
2023-04-25T02:22:27.159Z,19.59
2023-04-25T02:23:28.217Z,19.59
2023-04-25T02:24:29.069Z,19.58
2023-04-25T02:25:29.615Z,19.58
2023-04-25T02:26:30.373Z,19.59
2023-04-25T02:27:30.917Z,19.59
2023-04-25T02:28:31.959Z,19.59
2023-04-25T02:29:32.757Z,19.59
2023-04-25T02:30:33.305Z,19.59
2023-04-25T02:31:34.132Z,19.59
2023-04-25T02:32:34.679Z,19.59
2023-04-25T02:33:35.736Z,19.59
2023-04-25T02:34:36.516Z,19.58
2023-04-25T02:35:37.088Z,19.58
2023-04-25T02:36:37.878Z,19.57
2023-04-25T02:37:38.411Z,19.57
2023-04-25T02:38:39.442Z,19.58
2023-04-25T02:39:40.227Z,19.58
2023-04-25T02:40:40.770Z,19.57
2023-04-25T02:41:41.549Z,19.58
2023-04-25T02:42:42.100Z,19.58
2023-04-25T02:43:43.146Z,19.57
2023-04-25T02:44:43.942Z,19.58
2023-04-25T02:45:44.478Z,19.58
2023-04-25T02:46:45.360Z,19.58
2023-04-25T02:47:45.966Z,19.58
2023-04-25T02:48:47.096Z,19.57
2023-04-25T02:49:47.861Z,19.58
2023-04-25T02:50:48.397Z,19.58
2023-04-25T02:51:49.484Z,19.57
2023-04-25T02:52:50.266Z,19.58
2023-04-25T02:53:51.151Z,19.58
2023-04-25T02:54:51.677Z,19.58
2023-04-25T02:55:52.207Z,19.58
2023-04-25T02:56:53.254Z,19.57
2023-04-25T02:57:54.092Z,19.57
2023-04-25T02:58:54.665Z,19.57
2023-04-25T02:59:55.438Z,19.57
2023-04-25T03:00:56.053Z,19.56
2023-04-25T03:01:57.088Z,19.56
2023-04-25T03:02:57.994Z,19.57
2023-04-25T03:03:58.642Z,19.56
2023-04-25T03:04:59.672Z,19.57
2023-04-25T03:06:00.452Z,19.56
2023-04-25T03:07:00.991Z,19.56
2023-04-25T03:08:01.824Z,19.56
2023-04-25T03:09:02.386Z,19.56
2023-04-25T03:10:03.413Z,19.56
2023-04-25T03:11:04.201Z,19.56
2023-04-25T03:12:04.768Z,19.55
2023-04-25T03:13:05.546Z,19.55
2023-04-25T03:14:06.076Z,19.55
2023-04-25T03:15:07.113Z,19.54
2023-04-25T03:16:07.938Z,19.55
2023-04-25T03:17:08.494Z,19.55
2023-04-25T03:18:09.383Z,19.54
2023-04-25T03:19:10.032Z,19.54
2023-04-25T03:20:11.065Z,19.54
2023-04-25T03:21:11.852Z,19.55
2023-04-25T03:22:12.407Z,19.55
2023-04-25T03:23:13.185Z,19.55
2023-04-25T03:24:13.726Z,19.54
2023-04-25T03:25:14.755Z,19.54
2023-04-25T03:26:15.531Z,19.54
2023-04-25T03:27:16.081Z,19.55
2023-04-25T03:28:16.884Z,19.55
2023-04-25T03:29:17.442Z,19.55
2023-04-25T03:30:18.522Z,19.55
2023-04-25T03:31:19.305Z,19.55
2023-04-25T03:32:19.875Z,19.54
2023-04-25T03:33:20.643Z,19.54
2023-04-25T03:34:21.202Z,19.54
2023-04-25T03:35:22.221Z,19.55
2023-04-25T03:36:22.992Z,19.54
2023-04-25T03:37:23.540Z,19.55
2023-04-25T03:38:24.315Z,19.55
2023-04-25T03:39:24.862Z,19.55
2023-04-25T03:40:25.911Z,19.54
2023-04-25T03:41:26.739Z,19.54
2023-04-25T03:42:27.284Z,19.54
2023-04-25T03:43:28.063Z,19.54
2023-04-25T03:44:28.605Z,19.54
2023-04-25T03:45:29.650Z,19.54
2023-04-25T03:46:30.484Z,19.54
2023-04-25T03:47:31.031Z,19.54
2023-04-25T03:48:31.806Z,19.55
2023-04-25T03:49:32.360Z,19.55
2023-04-25T03:50:33.380Z,19.54
2023-04-25T03:51:34.164Z,19.54
2023-04-25T03:52:34.766Z,19.54
2023-04-25T03:53:35.546Z,19.53
2023-04-25T03:54:36.107Z,19.53
2023-04-25T03:55:37.147Z,19.53
2023-04-25T03:56:37.914Z,19.52
2023-04-25T03:57:38.450Z,19.53
2023-04-25T03:58:39.237Z,19.53
2023-04-25T03:59:39.839Z,19.53
2023-04-25T04:00:40.890Z,19.52
2023-04-25T04:01:41.659Z,19.52
2023-04-25T04:02:45.178Z,19.52
2023-04-25T04:03:43.084Z,19.52
2023-04-25T04:04:44.050Z,19.52
2023-04-25T04:05:44.637Z,19.52
2023-04-25T04:06:45.141Z,19.52
2023-04-25T04:07:45.958Z,19.52
2023-04-25T04:08:46.514Z,19.51
2023-04-25T04:09:47.519Z,19.50
2023-04-25T04:10:48.302Z,19.51
2023-04-25T04:11:48.846Z,19.52
2023-04-25T04:12:49.617Z,19.52
2023-04-25T04:13:50.387Z,19.52
2023-04-25T04:14:51.042Z,19.51
2023-04-25T04:15:51.848Z,19.52
2023-04-25T04:16:52.385Z,19.52
2023-04-25T04:17:53.266Z,19.51
2023-04-25T04:18:53.820Z,19.50
2023-04-25T04:19:54.883Z,19.51
2023-04-25T04:20:55.643Z,19.52
2023-04-25T04:21:56.173Z,19.52
2023-04-25T04:22:56.956Z,19.51
2023-04-25T04:23:57.545Z,19.51
2023-04-25T04:24:58.617Z,19.50
2023-04-25T04:25:59.391Z,19.50
2023-04-25T04:26:59.932Z,19.50
2023-04-25T04:28:00.712Z,19.51
2023-04-25T04:29:01.267Z,19.50
2023-04-25T04:30:02.285Z,19.50
2023-04-25T04:31:02.813Z,19.51
2023-04-25T04:32:03.348Z,19.50
2023-04-25T04:33:04.156Z,19.51
2023-04-25T04:34:04.678Z,19.50
2023-04-25T04:35:05.797Z,19.50
2023-04-25T04:36:06.549Z,19.51
2023-04-25T04:37:07.096Z,19.52
2023-04-25T04:38:07.890Z,19.52
2023-04-25T04:39:08.442Z,19.51
2023-04-25T04:40:09.478Z,19.50
2023-04-25T04:41:10.267Z,19.51
2023-04-25T04:42:10.809Z,19.50
2023-04-25T04:43:11.587Z,19.51
2023-04-25T04:44:12.145Z,19.52
2023-04-25T04:45:13.206Z,19.51
2023-04-25T04:46:14.099Z,19.51
2023-04-25T04:47:14.612Z,19.52
2023-04-25T04:48:15.404Z,19.51
2023-04-25T04:49:15.963Z,19.51
2023-04-25T04:50:17.016Z,19.51
2023-04-25T04:51:17.796Z,19.49
2023-04-25T04:52:18.332Z,19.50
2023-04-25T04:53:19.103Z,19.49
2023-04-25T04:54:19.664Z,19.49
2023-04-25T04:55:20.705Z,19.49
2023-04-25T04:56:21.499Z,19.49
2023-04-25T04:57:22.068Z,19.50
2023-04-25T04:58:22.868Z,19.49
2023-04-25T04:59:23.434Z,19.49
2023-04-25T05:00:24.476Z,19.49
2023-04-25T05:01:25.277Z,19.49
2023-04-25T05:02:25.858Z,19.49
2023-04-25T05:03:26.772Z,19.49
2023-04-25T05:04:27.525Z,19.49
2023-04-25T05:05:28.117Z,19.49
2023-04-25T05:06:28.869Z,19.49
2023-04-25T05:07:29.414Z,19.48
2023-04-25T05:08:30.242Z,19.49
2023-04-25T05:09:30.790Z,19.49
2023-04-25T05:10:31.845Z,19.49
2023-04-25T05:11:32.617Z,19.49
2023-04-25T05:12:34.136Z,19.49
2023-04-25T05:13:34.010Z,19.49
2023-04-25T05:14:34.577Z,19.50
2023-04-25T05:15:35.603Z,19.50
2023-04-25T05:16:36.418Z,19.49
2023-04-25T05:17:37.016Z,19.50
2023-04-25T05:18:37.765Z,19.50
2023-04-25T05:19:38.361Z,19.50
2023-04-25T05:20:39.436Z,19.49
2023-04-25T05:21:40.202Z,19.49
2023-04-25T05:22:40.735Z,19.49
2023-04-25T05:23:41.529Z,19.49
2023-04-25T05:24:42.067Z,19.48
2023-04-25T05:25:43.115Z,19.49
2023-04-25T05:26:43.882Z,19.49
2023-04-25T05:27:44.438Z,19.49
2023-04-25T05:28:45.209Z,19.49
2023-04-25T05:29:45.760Z,19.49
2023-04-25T05:30:46.804Z,19.49
2023-04-25T05:31:47.638Z,19.49
2023-04-25T05:32:48.187Z,19.49
2023-04-25T05:33:49.162Z,19.48
2023-04-25T05:34:49.784Z,19.49
2023-04-25T05:35:50.832Z,19.49
2023-04-25T05:36:51.583Z,19.49
2023-04-25T05:37:52.119Z,19.49
2023-04-25T05:38:52.929Z,19.49
2023-04-25T05:39:53.451Z,19.49
2023-04-25T05:40:54.528Z,19.49
2023-04-25T05:41:55.309Z,19.49
2023-04-25T05:42:55.846Z,19.49
2023-04-25T05:43:58.420Z,19.49
2023-04-25T05:44:57.378Z,19.49
2023-04-25T05:45:57.933Z,19.50
2023-04-25T05:46:58.959Z,19.50
2023-04-25T05:47:59.779Z,19.50
2023-04-25T05:49:00.314Z,19.50
2023-04-25T05:50:01.162Z,19.49
2023-04-25T05:51:01.763Z,19.50
2023-04-25T05:52:02.759Z,19.49
2023-04-25T05:53:03.552Z,19.49
2023-04-25T05:54:04.086Z,19.50
2023-04-25T05:55:04.872Z,19.51
2023-04-25T05:56:05.416Z,19.50
2023-04-25T05:57:06.447Z,19.50
2023-04-25T05:58:07.223Z,19.50
2023-04-25T05:59:07.763Z,19.51
2023-04-25T06:00:08.588Z,19.50
2023-04-25T06:01:09.150Z,19.50
2023-04-25T06:02:10.358Z,19.51
2023-04-25T06:03:11.303Z,19.51
2023-04-25T06:04:12.083Z,19.49
2023-04-25T06:05:13.257Z,19.49
2023-04-25T06:06:13.828Z,19.49
2023-04-25T06:07:14.506Z,19.49
2023-04-25T06:08:15.571Z,19.49
2023-04-25T06:09:16.338Z,19.48
2023-04-25T06:10:16.872Z,19.50
2023-04-25T06:11:17.650Z,19.49
2023-04-25T06:12:18.206Z,19.49
2023-04-25T06:13:19.281Z,19.49
2023-04-25T06:14:20.057Z,19.49
2023-04-25T06:16:21.392Z,19.48
2023-04-25T06:17:22.487Z,19.49
2023-04-25T06:18:23.277Z,19.49
2023-04-25T06:19:23.846Z,19.48
2023-04-25T06:20:24.866Z,19.49
2023-04-25T06:21:25.651Z,19.49
2023-04-25T06:22:26.164Z,19.48
2023-04-25T06:23:26.951Z,19.48
2023-04-25T06:24:27.514Z,19.49
2023-04-25T06:25:28.563Z,19.48
2023-04-25T06:26:29.345Z,19.47
2023-04-25T06:27:29.901Z,19.46
2023-04-25T06:28:30.690Z,19.46
2023-04-25T06:29:31.233Z,19.46
2023-04-25T06:30:32.278Z,19.46
2023-04-25T06:31:33.071Z,19.45
2023-04-25T06:32:33.651Z,19.46
2023-04-25T06:33:34.514Z,19.47
2023-04-25T06:34:35.085Z,19.48
2023-04-25T06:35:36.152Z,19.47
2023-04-25T06:36:36.948Z,19.49
2023-04-25T06:37:37.479Z,19.49
2023-04-25T06:38:38.337Z,19.52
2023-04-25T06:39:41.147Z,19.50
2023-04-25T06:40:39.687Z,19.51
2023-04-25T06:41:40.228Z,19.52
2023-04-25T06:42:41.022Z,19.53
2023-04-25T06:43:41.567Z,19.54
2023-04-25T06:44:43.769Z,19.55
2023-04-25T06:45:44.437Z,19.57
2023-04-25T06:46:44.776Z,19.58
2023-04-25T06:47:45.749Z,19.60
2023-04-25T06:48:46.342Z,19.63
2023-04-25T06:49:47.371Z,19.65
2023-04-25T06:50:48.154Z,19.67
2023-04-25T06:51:48.716Z,19.68
2023-04-25T06:52:49.488Z,19.68
2023-04-25T06:53:50.044Z,19.68
2023-04-25T06:54:51.086Z,19.70
2023-04-25T06:55:51.874Z,19.71
2023-04-25T06:56:52.403Z,19.71
2023-04-25T06:57:53.200Z,19.73
2023-04-25T06:58:53.811Z,19.72
2023-04-25T06:59:54.855Z,19.74
2023-04-25T07:00:55.705Z,19.74
2023-04-25T07:01:56.210Z,19.75
2023-04-25T07:02:57.135Z,19.80
2023-04-25T07:03:58.039Z,19.85
2023-04-25T07:04:58.741Z,19.85
2023-04-25T07:05:59.540Z,19.85
2023-04-25T07:07:00.149Z,19.86
2023-04-25T07:08:00.908Z,19.85
2023-04-25T07:09:01.786Z,19.84
2023-04-25T07:10:02.828Z,19.87
2023-04-25T07:11:03.603Z,19.91
2023-04-25T07:12:04.154Z,19.93
2023-04-25T07:13:04.949Z,19.92
2023-04-25T07:14:05.484Z,19.92
2023-04-25T07:15:06.526Z,19.92
2023-04-25T07:16:07.374Z,19.92
2023-04-25T07:17:07.944Z,19.91
2023-04-25T07:18:08.783Z,19.91
2023-04-25T07:19:09.401Z,19.90
2023-04-25T07:20:10.439Z,19.90
2023-04-25T07:21:11.222Z,19.89
2023-04-25T07:22:11.782Z,19.87
2023-04-25T07:23:12.588Z,19.87
2023-04-25T07:24:13.128Z,19.85
2023-04-25T07:25:14.173Z,19.84
2023-04-25T07:26:14.964Z,19.83
2023-04-25T07:27:15.504Z,19.83
2023-04-25T07:28:18.137Z,19.81
2023-04-25T07:29:17.177Z,19.79
2023-04-25T07:30:18.202Z,19.78
2023-04-25T07:31:18.985Z,19.77
2023-04-25T07:32:19.633Z,19.78
2023-04-25T07:33:20.745Z,19.77
2023-04-25T07:34:21.527Z,19.78
2023-04-25T07:35:22.069Z,19.77
2023-04-25T07:36:23.126Z,19.77
2023-04-25T07:37:23.928Z,19.77
2023-04-25T07:38:24.470Z,19.77
2023-04-25T07:39:25.243Z,19.76
2023-04-25T07:40:25.840Z,19.76
2023-04-25T07:41:26.883Z,19.75
2023-04-25T07:42:27.667Z,19.75
2023-04-25T07:43:28.208Z,19.76
2023-04-25T07:44:28.990Z,19.77
2023-04-25T07:45:29.543Z,19.78
2023-04-25T07:46:30.682Z,19.79
2023-04-25T07:47:31.596Z,19.80
2023-04-25T07:48:32.121Z,19.80
2023-04-25T07:49:32.911Z,19.80
2023-04-25T07:50:33.453Z,19.80
2023-04-25T07:51:34.527Z,19.82
2023-04-25T07:52:35.341Z,19.83
2023-04-25T07:53:35.866Z,19.83
2023-04-25T07:54:36.626Z,19.83
2023-04-25T07:55:37.170Z,19.85
2023-04-25T07:56:49.015Z,19.86
2023-04-25T07:57:40.420Z,19.86
2023-04-25T07:58:40.197Z,19.87
2023-04-25T07:59:40.724Z,19.87
2023-04-25T08:00:41.509Z,19.87
2023-04-25T08:01:42.056Z,19.89
2023-04-25T08:02:43.249Z,19.88
2023-04-25T08:03:44.195Z,19.88
2023-04-25T08:04:45.094Z,19.88
2023-04-25T08:05:45.850Z,19.87
2023-04-25T08:06:46.639Z,19.88
2023-04-25T08:07:47.201Z,19.89
2023-04-25T08:08:48.810Z,19.89
2023-04-25T08:09:49.153Z,19.90
2023-04-25T08:10:49.692Z,19.89
2023-04-25T08:11:50.471Z,19.89
2023-04-25T08:12:51.022Z,19.90
2023-04-25T08:13:52.112Z,19.91
2023-04-25T08:14:52.908Z,19.92
2023-04-25T08:15:53.500Z,19.92
2023-04-25T08:16:54.310Z,19.92
2023-04-25T08:17:54.952Z,19.92
2023-04-25T08:18:56.004Z,19.92
2023-04-25T08:19:56.787Z,19.93
2023-04-25T08:20:57.326Z,19.93
2023-04-25T08:21:58.120Z,19.94
2023-04-25T08:22:58.680Z,19.95
2023-04-25T08:23:59.748Z,19.95
2023-04-25T08:25:00.581Z,19.95
2023-04-25T08:26:01.125Z,19.96
2023-04-25T08:27:01.913Z,19.97
2023-04-25T08:28:02.443Z,19.97
2023-04-25T08:29:03.511Z,19.97
2023-04-25T08:30:04.287Z,19.96
2023-04-25T08:31:04.850Z,19.95
2023-04-25T08:32:05.593Z,19.95
2023-04-25T08:33:06.210Z,19.94
2023-04-25T08:34:07.297Z,19.94
2023-04-25T08:35:08.138Z,19.95
2023-04-25T08:36:08.658Z,19.96
2023-04-25T08:37:09.512Z,19.97
2023-04-25T08:38:10.162Z,19.97
2023-04-25T08:39:11.157Z,19.96
2023-04-25T08:40:11.950Z,19.96
2023-04-25T08:41:12.500Z,19.97
2023-04-25T08:42:13.309Z,19.97
2023-04-25T08:43:13.854Z,19.96
2023-04-25T08:44:14.909Z,19.96
2023-04-25T08:45:15.696Z,19.95
2023-04-25T08:46:16.311Z,19.97
2023-04-25T08:47:17.099Z,19.97
2023-04-25T08:48:17.657Z,19.97
2023-04-25T08:49:18.711Z,19.96
2023-04-25T08:50:19.491Z,19.96
2023-04-25T08:51:21.177Z,19.97
2023-04-25T08:52:20.732Z,19.97
2023-04-25T08:53:21.809Z,19.97
2023-04-25T08:54:34.236Z,19.95
2023-04-25T08:55:24.773Z,19.95
2023-04-25T08:56:24.534Z,19.95
2023-04-25T08:57:25.123Z,19.95
2023-04-25T08:58:25.888Z,19.95
2023-04-25T08:59:26.422Z,19.92
2023-04-25T09:00:27.472Z,19.92
2023-04-25T09:01:28.291Z,19.92
2023-04-25T09:02:28.983Z,19.92
2023-04-25T09:03:30.233Z,19.93
2023-04-25T09:04:31.037Z,19.93
2023-04-25T09:05:31.569Z,19.93
2023-04-25T09:06:32.606Z,19.93
2023-04-25T09:07:33.406Z,19.93
2023-04-25T09:08:34.012Z,19.93
2023-04-25T09:09:34.780Z,19.92
2023-04-25T09:10:35.320Z,19.91
2023-04-25T09:11:36.358Z,19.92
2023-04-25T09:12:37.168Z,19.91
2023-04-25T09:13:37.705Z,19.92
2023-04-25T09:14:38.489Z,19.92
2023-04-25T09:15:39.045Z,19.92
2023-04-25T09:16:41.170Z,19.92
2023-04-25T09:17:41.010Z,19.92
2023-04-25T09:18:48.494Z,19.92
2023-04-25T09:19:43.777Z,19.92
2023-04-25T09:20:59.750Z,19.92
2023-04-25T09:21:46.662Z,19.91
2023-04-25T09:22:45.458Z,19.92
2023-04-25T09:23:46.024Z,19.91
2023-04-25T09:24:46.800Z,19.93
2023-04-25T09:25:47.341Z,19.93
2023-04-25T09:26:48.378Z,19.92
2023-04-25T09:27:49.174Z,19.92
2023-04-25T09:28:49.769Z,19.93
2023-04-25T09:29:50.529Z,19.93
2023-04-25T09:30:51.063Z,19.95
2023-04-25T09:31:52.121Z,19.95
2023-04-25T09:32:52.958Z,19.95
2023-04-25T09:33:54.635Z,19.96
2023-04-25T09:34:54.109Z,19.94
2023-04-25T09:35:54.657Z,19.95
2023-04-25T09:36:55.459Z,19.95
2023-04-25T09:37:56.031Z,19.95
2023-04-25T09:38:57.155Z,19.97
2023-04-25T09:39:57.976Z,19.98
2023-04-25T09:40:58.571Z,19.99
2023-04-25T09:41:59.651Z,19.99
2023-04-25T09:43:00.473Z,19.97
2023-04-25T09:44:01.529Z,19.99
2023-04-25T09:45:01.519Z,20.00
2023-04-25T09:46:02.150Z,20.01
2023-04-25T09:47:03.187Z,20.02
2023-04-25T09:48:04.062Z,20.03
2023-04-25T09:49:04.633Z,20.02
2023-04-25T09:50:05.674Z,20.02
2023-04-25T09:51:06.487Z,20.03
2023-04-25T09:52:07.037Z,20.04
2023-04-25T09:53:07.846Z,20.05
2023-04-25T09:54:08.425Z,20.05
2023-04-25T09:55:09.444Z,20.05
2023-04-25T09:56:10.219Z,20.06
2023-04-25T09:57:10.767Z,20.07
2023-04-25T09:58:11.610Z,20.08
2023-04-25T09:59:12.201Z,20.08
2023-04-25T10:00:13.275Z,20.10
2023-04-25T10:01:14.071Z,20.10
2023-04-25T10:02:14.628Z,20.10
2023-04-25T10:03:15.526Z,20.10
2023-04-25T10:04:16.239Z,20.11
2023-04-25T10:05:17.287Z,20.12
2023-04-25T10:06:18.696Z,20.11
2023-04-25T10:07:18.885Z,20.12
2023-04-25T10:08:19.682Z,20.13
2023-04-25T10:09:20.367Z,20.14
2023-04-25T10:10:21.403Z,20.14
2023-04-25T10:11:22.184Z,20.13
2023-04-25T10:12:22.720Z,20.14
2023-04-25T10:13:23.508Z,20.14
2023-04-25T10:14:24.059Z,20.14
2023-04-25T10:15:25.104Z,20.15
2023-04-25T10:16:25.916Z,20.14
2023-04-25T10:17:26.449Z,20.15
2023-04-25T10:18:27.214Z,20.16
2023-04-25T10:19:27.752Z,20.15
2023-04-25T10:20:28.786Z,20.15
2023-04-25T10:21:29.623Z,20.15
2023-04-25T10:22:30.155Z,20.16
2023-04-25T10:23:30.961Z,20.17
2023-04-25T10:24:31.533Z,20.14
2023-04-25T10:25:32.557Z,20.13
2023-04-25T10:26:33.344Z,20.08
2023-04-25T10:27:33.894Z,20.03
2023-04-25T10:28:34.682Z,19.99
2023-04-25T10:29:35.243Z,19.94
2023-04-25T10:30:36.292Z,19.90
2023-04-25T10:31:37.133Z,19.90
2023-04-25T10:32:37.752Z,19.91
2023-04-25T10:33:38.555Z,19.89
2023-04-25T10:34:39.091Z,19.89
2023-04-25T10:35:40.130Z,19.92
2023-04-25T10:36:40.913Z,19.91
2023-04-25T10:37:41.519Z,19.89
2023-04-25T10:38:42.322Z,19.90
2023-04-25T10:39:42.996Z,19.89
2023-04-25T10:40:44.014Z,19.89
2023-04-25T10:41:44.808Z,19.90
2023-04-25T10:42:45.352Z,19.91
2023-04-25T10:43:46.186Z,19.92
2023-04-25T10:44:46.746Z,19.93
2023-04-25T10:45:47.779Z,19.93
2023-04-25T10:46:48.621Z,19.95
2023-04-25T10:47:49.202Z,19.99
2023-04-25T10:48:50.042Z,20.03
2023-04-25T10:49:50.581Z,20.08
2023-04-25T10:50:51.635Z,20.12
2023-04-25T10:51:55.647Z,20.11
2023-04-25T10:52:53.045Z,20.14
2023-04-25T10:53:54.093Z,20.18
2023-04-25T10:54:54.961Z,20.21
2023-04-25T10:55:55.441Z,20.26
2023-04-25T10:56:56.256Z,20.28
2023-04-25T10:58:58.170Z,20.33
2023-04-25T10:59:58.632Z,20.34
2023-04-25T11:00:59.237Z,20.36
2023-04-25T11:02:00.290Z,20.37
2023-04-25T11:03:01.097Z,20.39
2023-04-25T11:04:01.960Z,20.40
2023-04-25T11:05:02.306Z,20.42
2023-04-25T11:06:02.853Z,20.42
2023-04-25T11:07:07.052Z,20.46
2023-04-25T11:08:08.274Z,20.52
2023-04-25T11:09:05.289Z,20.55
2023-04-25T11:10:06.146Z,20.57
2023-04-25T11:11:06.647Z,20.62
2023-04-25T11:12:07.688Z,20.65
2023-04-25T11:13:08.463Z,20.69
2023-04-25T11:14:09.006Z,20.70
2023-04-25T11:15:09.796Z,20.70
2023-04-25T11:16:12.844Z,20.72
2023-04-25T11:17:11.455Z,20.73
2023-04-25T11:18:12.038Z,20.80
2023-04-25T11:19:12.811Z,20.85
2023-04-25T11:20:13.405Z,20.91
2023-04-25T11:21:14.520Z,20.95
2023-04-25T11:22:15.288Z,20.97
2023-04-25T11:23:15.817Z,21.00
2023-04-25T11:24:16.605Z,21.03
2023-04-25T11:25:17.165Z,21.04
2023-04-25T11:26:18.210Z,21.07
2023-04-25T11:27:18.986Z,21.08
2023-04-25T11:28:19.511Z,21.09
2023-04-25T11:29:20.329Z,21.08
2023-04-25T11:30:20.846Z,21.11
2023-04-25T11:31:21.925Z,21.16
2023-04-25T11:32:23.688Z,21.18
2023-04-25T11:33:23.567Z,21.20
2023-04-25T11:34:24.062Z,21.21
2023-04-25T11:35:25.099Z,21.22
2023-04-25T11:36:25.869Z,21.21
2023-04-25T11:37:26.396Z,21.27
2023-04-25T11:38:27.484Z,21.32
2023-04-25T11:39:27.986Z,21.37
2023-04-25T11:40:28.548Z,21.41
2023-04-25T11:41:29.556Z,21.42
2023-04-25T11:42:30.339Z,21.45
2023-04-25T11:43:30.982Z,21.47
2023-04-25T11:44:31.919Z,21.51
2023-04-25T11:45:32.497Z,21.56
2023-04-25T11:46:33.680Z,21.60
2023-04-25T11:47:34.482Z,21.64
2023-04-25T11:48:34.985Z,21.76
2023-04-25T11:49:35.794Z,21.86
2023-04-25T11:50:36.312Z,21.95
2023-04-25T11:51:37.377Z,22.01
2023-04-25T11:52:38.147Z,22.06
2023-04-25T11:53:38.695Z,22.14
2023-04-25T11:54:39.492Z,22.18
2023-04-25T11:55:40.067Z,22.23
2023-04-25T11:56:41.093Z,22.30
2023-04-25T11:57:41.891Z,22.36
2023-04-25T11:58:42.457Z,22.32
2023-04-25T11:59:43.238Z,22.31
2023-04-25T12:00:50.167Z,22.25
2023-04-25T12:01:45.974Z,22.12
2023-04-25T12:02:45.912Z,22.06
2023-04-25T12:03:46.712Z,21.93
2023-04-25T12:04:47.561Z,21.69
2023-04-25T12:05:48.163Z,21.44
2023-04-25T12:06:49.131Z,21.38
2023-04-25T12:07:49.735Z,21.33
2023-04-25T12:08:50.707Z,21.29
2023-04-25T12:09:51.399Z,21.31
2023-04-25T12:10:52.452Z,21.28
2023-04-25T12:11:53.209Z,21.32
2023-04-25T12:12:53.753Z,21.41
2023-04-25T12:13:54.528Z,21.49
2023-04-25T12:14:55.090Z,21.55
2023-04-25T12:15:56.127Z,21.57
2023-04-25T12:16:56.875Z,21.60
2023-04-25T12:17:57.422Z,21.57
2023-04-25T12:18:58.198Z,21.52
2023-04-25T12:19:58.785Z,21.49
2023-04-25T12:20:59.868Z,21.47
2023-04-25T12:22:00.638Z,21.43
2023-04-25T12:23:01.192Z,21.42
2023-04-25T12:24:01.988Z,21.43
2023-04-25T12:25:02.519Z,21.45
2023-04-25T12:26:03.656Z,21.41
2023-04-25T12:27:04.429Z,21.42
2023-04-25T12:28:04.958Z,21.45
2023-04-25T12:29:05.743Z,21.45
2023-04-25T12:30:06.284Z,21.44
2023-04-25T12:31:07.401Z,21.41
2023-04-25T12:32:08.201Z,21.38
2023-04-25T12:33:08.797Z,21.33
2023-04-25T12:34:09.625Z,21.31
2023-04-25T12:35:10.178Z,21.26
2023-04-25T12:36:11.222Z,21.25
2023-04-25T12:37:11.984Z,21.27
2023-04-25T12:38:12.520Z,21.34
2023-04-25T12:39:13.309Z,21.39
2023-04-25T12:40:13.861Z,21.35
2023-04-25T12:41:14.934Z,21.31
2023-04-25T12:42:15.691Z,21.31
2023-04-25T12:43:16.214Z,21.29
2023-04-25T12:44:17.005Z,21.30
2023-04-25T12:45:17.572Z,21.38
2023-04-25T12:46:18.642Z,21.40
2023-04-25T12:47:19.456Z,21.45
2023-04-25T12:48:19.980Z,21.43
2023-04-25T12:49:20.753Z,21.44
2023-04-25T12:50:21.476Z,21.46
2023-04-25T12:51:22.532Z,21.48
2023-04-25T12:52:23.333Z,21.52
2023-04-25T12:53:23.920Z,21.57
2023-04-25T12:54:24.929Z,21.58
2023-04-25T12:55:25.702Z,21.61
2023-04-25T12:56:26.255Z,21.65
2023-04-25T12:57:27.023Z,21.69
2023-04-25T12:58:27.568Z,21.68
2023-04-25T12:59:28.609Z,21.72
2023-04-25T13:00:29.450Z,21.70
2023-04-25T13:01:30.031Z,21.72
2023-04-25T13:02:31.184Z,21.70
2023-04-25T13:03:32.184Z,21.66
2023-04-25T13:04:32.961Z,21.64